createdAt,value
2022-11-21T00:00:54.787Z,40.42
2022-11-21T00:03:22.201Z,36.15
2022-11-21T00:05:49.534Z,42.75
2022-11-21T00:08:19.139Z,41.67
2022-11-21T00:10:46.156Z,38.10
2022-11-21T00:13:15.293Z,41.67
2022-11-21T00:15:41.846Z,44.67
2022-11-21T00:18:08.369Z,39.15
2022-11-21T00:20:37.163Z,38.28
2022-11-21T00:23:04.321Z,39.85
2022-11-21T00:25:31.163Z,38.85
2022-11-21T00:27:57.766Z,38.72
2022-11-21T00:30:24.794Z,36.95
2022-11-21T00:32:51.493Z,35.95
2022-11-21T00:35:18.126Z,42.28
2022-11-21T00:37:44.605Z,35.90
2022-11-21T00:40:11.709Z,39.60
2022-11-21T00:42:38.651Z,38.13
2022-11-21T00:45:05.700Z,45.88
2022-11-21T00:47:32.213Z,37.35
2022-11-21T00:49:58.728Z,35.63
2022-11-21T00:52:26.134Z,38.70
2022-11-21T00:54:52.727Z,35.42
2022-11-21T00:57:19.382Z,37.75
2022-11-21T00:59:49.525Z,38.65
2022-11-21T01:02:16.106Z,42.00
2022-11-21T01:04:42.641Z,38.05
2022-11-21T01:07:09.243Z,36.63
2022-11-21T01:09:36.027Z,40.33
2022-11-21T01:12:02.701Z,38.15
2022-11-21T01:14:30.173Z,39.60
2022-11-21T01:16:57.059Z,37.50
2022-11-21T01:19:23.805Z,36.22
2022-11-21T01:21:50.530Z,37.15
2022-11-21T01:24:17.092Z,36.13
2022-11-21T01:26:43.674Z,38.97
2022-11-21T01:29:10.294Z,37.50
2022-11-21T01:31:36.966Z,34.92
2022-11-21T01:34:03.753Z,33.67
2022-11-21T01:36:32.551Z,36.63
2022-11-21T01:39:01.742Z,35.40
2022-11-21T01:41:36.061Z,33.00
2022-11-21T01:44:19.544Z,34.83
2022-11-21T01:46:47.425Z,34.15
2022-11-21T01:49:18.025Z,35.97
2022-11-21T01:51:50.717Z,35.58
2022-11-21T01:54:31.659Z,36.90
2022-11-21T02:00:04.694Z,31.05
2022-11-21T02:02:36.830Z,36.60
2022-11-21T02:05:06.724Z,36.17
2022-11-21T02:07:39.310Z,35.72
2022-11-21T02:10:06.845Z,35.55
2022-11-21T02:12:51.778Z,36.95
2022-11-21T02:15:19.794Z,33.85
2022-11-21T02:17:46.331Z,33.35
2022-11-21T02:20:15.764Z,35.17
2022-11-21T02:22:54.178Z,35.45
2022-11-21T02:25:26.970Z,39.40
2022-11-21T02:27:58.716Z,39.25
2022-11-21T02:30:27.780Z,38.58
2022-11-21T02:32:55.176Z,38.25
2022-11-21T02:35:21.836Z,30.60
2022-11-21T02:38:08.634Z,37.17
2022-11-21T02:40:40.496Z,35.17
2022-11-21T02:43:12.683Z,35.50
2022-11-21T02:45:47.370Z,36.33
2022-11-21T02:48:14.480Z,38.33
2022-11-21T02:50:43.260Z,35.83
2022-11-21T02:53:12.722Z,35.30
2022-11-21T02:55:39.554Z,39.50
2022-11-21T02:58:06.953Z,38.10
2022-11-21T03:00:35.576Z,38.63
2022-11-21T03:03:02.466Z,37.78
2022-11-21T03:05:29.378Z,39.75
2022-11-21T03:07:56.067Z,41.15
2022-11-21T03:10:24.624Z,43.67
2022-11-21T03:12:51.370Z,43.25
2022-11-21T03:15:18.261Z,43.60
2022-11-21T03:17:49.076Z,44.97
2022-11-21T03:20:19.627Z,40.88
2022-11-21T03:22:46.595Z,43.00
2022-11-21T03:25:13.208Z,44.08
2022-11-21T03:27:39.687Z,39.95
2022-11-21T03:30:07.116Z,37.95
2022-11-21T03:32:33.599Z,40.80
2022-11-21T03:35:00.073Z,36.20
2022-11-21T03:37:26.547Z,33.83
2022-11-21T03:39:53.506Z,32.50
2022-11-21T03:42:19.958Z,35.78
2022-11-21T03:44:54.281Z,40.33
2022-11-21T03:47:20.816Z,40.85
2022-11-21T03:49:47.277Z,38.55
2022-11-21T03:52:13.840Z,47.88
2022-11-21T03:54:40.539Z,60.08
2022-11-21T03:57:07.292Z,51.20
2022-11-21T03:59:33.821Z,42.53
2022-11-21T04:02:00.782Z,58.05
2022-11-21T04:04:27.848Z,84.78
2022-11-21T04:06:55.001Z,115.40
2022-11-21T04:09:21.475Z,52.95
2022-11-21T04:11:48.009Z,100.20
2022-11-21T04:14:14.609Z,136.50
2022-11-21T04:16:41.281Z,103.45
2022-11-21T04:19:07.844Z,90.47
2022-11-21T04:21:34.405Z,111.53
2022-11-21T04:24:01.200Z,95.05
2022-11-21T04:26:27.974Z,93.57
2022-11-21T04:28:54.614Z,133.02
2022-11-21T04:31:21.199Z,91.00
2022-11-21T04:33:47.767Z,132.93
2022-11-21T04:36:14.585Z,92.15
2022-11-21T04:38:41.137Z,133.85
2022-11-21T04:41:07.767Z,123.35
2022-11-21T04:43:34.330Z,122.25
2022-11-21T04:46:00.824Z,79.65
2022-11-21T04:48:27.565Z,102.93
2022-11-21T04:50:54.150Z,103.65
2022-11-21T04:53:20.683Z,110.18
2022-11-21T04:55:47.327Z,108.25
2022-11-21T04:58:14.294Z,114.35
2022-11-21T05:00:40.948Z,95.22
2022-11-21T05:03:07.901Z,50.85
2022-11-21T05:05:34.590Z,66.65
2022-11-21T05:08:01.670Z,51.25
2022-11-21T05:10:28.225Z,69.30
2022-11-21T05:13:17.728Z,64.47
2022-11-21T05:15:44.399Z,54.33
2022-11-21T05:18:11.034Z,74.55
2022-11-21T05:20:37.588Z,62.65
2022-11-21T05:23:04.569Z,59.65
2022-11-21T05:25:31.209Z,57.08
2022-11-21T05:27:57.871Z,62.55
2022-11-21T05:30:24.661Z,56.15
2022-11-21T05:32:51.384Z,39.92
2022-11-21T05:35:18.030Z,67.18
2022-11-21T05:37:46.278Z,50.92
2022-11-21T05:40:16.520Z,50.97
2022-11-21T05:43:01.477Z,33.15
2022-11-21T05:45:28.081Z,56.03
2022-11-21T05:47:55.555Z,44.95
2022-11-21T05:50:22.310Z,53.08
2022-11-21T05:52:48.783Z,58.65
2022-11-21T05:55:15.753Z,46.70
2022-11-21T05:57:42.290Z,43.92
2022-11-21T06:00:09.429Z,32.40
2022-11-21T06:02:54.655Z,53.50
2022-11-21T06:05:21.261Z,54.22
2022-11-21T06:07:47.859Z,48.75
2022-11-21T06:10:14.513Z,60.70
2022-11-21T06:12:41.038Z,63.50
2022-11-21T06:15:08.085Z,58.88
2022-11-21T06:17:34.825Z,58.58
2022-11-21T06:20:01.425Z,55.78
2022-11-21T06:22:27.938Z,53.17
2022-11-21T06:24:54.416Z,56.25
2022-11-21T06:27:21.108Z,74.85
2022-11-21T06:29:47.583Z,58.60
2022-11-21T06:32:14.279Z,52.15
2022-11-21T06:34:41.011Z,52.08
2022-11-21T06:37:07.648Z,52.92
2022-11-21T06:39:34.295Z,40.83
2022-11-21T06:42:01.982Z,40.40
2022-11-21T06:44:28.825Z,33.75
2022-11-21T06:46:55.629Z,38.45
2022-11-21T06:49:22.476Z,43.13
2022-11-21T06:51:49.030Z,41.55
2022-11-21T06:54:17.103Z,41.60
2022-11-21T06:56:44.118Z,42.92
2022-11-21T06:59:10.744Z,41.53
2022-11-21T07:01:37.663Z,37.85
2022-11-21T07:04:04.525Z,35.58
2022-11-21T07:06:31.121Z,38.28
2022-11-21T07:09:31.134Z,39.42
2022-11-21T07:11:44.423Z,36.65
2022-11-21T07:14:11.008Z,37.33
2022-11-21T07:16:38.008Z,49.35
2022-11-21T07:19:04.624Z,43.67
2022-11-21T07:21:31.277Z,42.63
2022-11-21T07:23:57.841Z,51.35
2022-11-21T07:26:24.400Z,54.50
2022-11-21T07:28:50.917Z,51.03
2022-11-21T07:31:17.458Z,61.60
2022-11-21T07:33:44.061Z,47.55
2022-11-21T07:36:12.124Z,38.90
2022-11-21T07:38:38.725Z,39.08
2022-11-21T07:41:05.630Z,38.38
2022-11-21T07:43:32.245Z,38.78
2022-11-21T07:45:58.943Z,36.60
2022-11-21T07:48:25.498Z,38.08
2022-11-21T07:50:52.189Z,36.60
2022-11-21T07:53:18.765Z,35.47
2022-11-21T07:55:45.337Z,33.95
2022-11-21T07:58:15.050Z,34.75
2022-11-21T08:00:45.060Z,32.28
2022-11-21T08:03:13.342Z,31.67
2022-11-21T08:05:42.676Z,32.30
2022-11-21T08:08:13.780Z,35.58
2022-11-21T08:10:45.553Z,29.63
2022-11-21T08:13:13.715Z,33.88
2022-11-21T08:15:40.996Z,31.05
2022-11-21T08:18:12.511Z,33.63
2022-11-21T08:20:39.869Z,36.05
2022-11-21T08:23:06.981Z,35.28
2022-11-21T08:25:34.855Z,32.00
2022-11-21T08:28:02.859Z,30.65
2022-11-21T08:30:30.082Z,29.10
2022-11-21T08:32:58.926Z,30.70
2022-11-21T08:35:28.773Z,33.58
2022-11-21T08:37:59.920Z,33.95
2022-11-21T08:40:28.180Z,27.35
2022-11-21T08:43:03.644Z,29.73
2022-11-21T08:45:30.619Z,34.35
2022-11-21T08:47:58.119Z,32.63
2022-11-21T08:50:25.193Z,34.63
2022-11-21T08:52:52.013Z,29.25
2022-11-21T08:55:18.509Z,33.42
2022-11-21T08:57:45.228Z,38.28
2022-11-21T09:00:14.936Z,31.65
2022-11-21T09:02:41.663Z,32.22
2022-11-21T09:05:08.869Z,31.92
2022-11-21T09:07:38.019Z,35.00
2022-11-21T09:10:05.499Z,37.53
2022-11-21T09:12:32.380Z,38.60
2022-11-21T09:15:17.639Z,34.97
2022-11-21T09:18:02.665Z,33.00
2022-11-21T09:20:30.391Z,37.20
2022-11-21T09:22:57.076Z,43.10
2022-11-21T09:25:23.684Z,44.97
2022-11-21T09:27:50.364Z,39.25
2022-11-21T09:30:18.840Z,39.65
2022-11-21T09:32:45.641Z,44.88
2022-11-21T09:35:12.380Z,48.65
2022-11-21T09:37:39.188Z,37.38
2022-11-21T09:40:06.741Z,52.65
2022-11-21T09:43:03.196Z,49.83
2022-11-21T09:45:48.708Z,43.03
2022-11-21T09:48:32.130Z,42.30
2022-11-21T09:51:04.518Z,45.03
2022-11-21T09:53:38.819Z,40.92
2022-11-21T09:56:08.026Z,42.53
2022-11-21T09:58:42.420Z,34.65
2022-11-21T10:01:12.626Z,39.40
2022-11-21T10:03:47.297Z,38.47
2022-11-21T10:06:22.905Z,39.20
2022-11-21T10:09:12.307Z,39.45
2022-11-21T10:12:02.911Z,36.13
2022-11-21T10:14:35.542Z,34.97
2022-11-21T10:17:30.113Z,32.05
2022-11-21T10:20:23.205Z,43.10
2022-11-21T10:23:13.386Z,38.58
2022-11-21T10:25:48.846Z,38.67
2022-11-21T10:28:28.581Z,38.28
2022-11-21T10:30:58.881Z,32.63
2022-11-21T10:33:32.665Z,33.53
2022-11-21T10:36:12.214Z,37.70
2022-11-21T10:38:45.146Z,37.85
2022-11-21T10:41:20.210Z,35.42
2022-11-21T10:44:23.998Z,38.03
2022-11-21T10:46:59.283Z,33.03
2022-11-21T10:49:29.123Z,36.55
2022-11-21T10:52:10.020Z,34.28
2022-11-21T10:55:05.096Z,41.00
2022-11-21T10:57:39.881Z,34.83
2022-11-21T11:00:15.354Z,34.92
2022-11-21T11:03:07.290Z,35.70
2022-11-21T11:05:38.874Z,33.60
2022-11-21T11:08:14.324Z,32.03
2022-11-21T11:10:46.453Z,34.33
2022-11-21T11:13:50.673Z,34.85
2022-11-21T11:16:21.358Z,33.03
2022-11-21T11:18:55.436Z,36.67
2022-11-21T11:21:25.838Z,36.35
2022-11-21T11:23:54.598Z,38.47
2022-11-21T11:26:29.692Z,38.22
2022-11-21T11:29:13.498Z,42.42
2022-11-21T11:32:04.631Z,38.25
2022-11-21T11:34:50.259Z,40.92
2022-11-21T11:37:41.169Z,36.35
2022-11-21T11:40:26.946Z,35.30
2022-11-21T11:43:36.474Z,40.95
2022-11-21T11:46:59.496Z,35.13
2022-11-21T11:50:02.005Z,36.60
2022-11-21T11:55:24.136Z,38.17
2022-11-21T11:57:55.649Z,37.50
2022-11-21T12:00:45.718Z,33.63
2022-11-21T12:03:35.676Z,39.63
2022-11-21T12:06:52.516Z,39.58
2022-11-21T12:09:24.877Z,37.55
2022-11-21T12:12:09.529Z,35.42
2022-11-21T12:15:15.418Z,35.05
2022-11-21T12:17:44.143Z,34.83
2022-11-21T12:20:19.594Z,33.30
2022-11-21T12:22:49.073Z,32.58
2022-11-21T12:25:16.537Z,29.90
2022-11-21T12:27:45.401Z,32.75
2022-11-21T12:30:49.250Z,31.90
2022-11-21T12:33:23.628Z,30.88
2022-11-21T12:36:18.409Z,30.95
2022-11-21T12:39:00.441Z,30.02
2022-11-21T12:41:56.601Z,29.15
2022-11-21T12:44:48.470Z,32.33
2022-11-21T12:48:14.509Z,27.15
2022-11-21T12:51:10.189Z,29.98
2022-11-21T12:54:21.742Z,29.38
2022-11-21T12:56:56.259Z,29.40
2022-11-21T13:01:51.637Z,24.40
2022-11-21T13:04:28.560Z,26.05
2022-11-21T13:06:57.620Z,24.90
2022-11-21T13:09:27.546Z,24.27
2022-11-21T13:12:05.618Z,24.42
2022-11-21T13:14:50.047Z,24.50
2022-11-21T13:17:26.008Z,22.85
2022-11-21T13:20:07.203Z,23.00
2022-11-21T13:22:36.557Z,23.92
2022-11-21T13:25:30.037Z,28.23
2022-11-21T13:28:19.117Z,25.20
2022-11-21T13:30:56.784Z,23.98
2022-11-21T13:33:35.330Z,23.30
2022-11-21T13:36:10.619Z,24.10
2022-11-21T13:38:55.567Z,24.20
2022-11-21T13:41:53.033Z,24.40
2022-11-21T13:44:29.746Z,25.25
2022-11-21T13:47:15.384Z,21.52
2022-11-21T13:49:58.314Z,21.13
2022-11-21T13:52:55.554Z,21.58
2022-11-21T13:55:51.924Z,18.33
2022-11-21T13:58:57.156Z,18.20
2022-11-21T14:04:25.262Z,15.80
2022-11-21T14:06:52.661Z,16.25
2022-11-21T14:09:22.320Z,18.85
2022-11-21T14:11:57.025Z,21.73
2022-11-21T14:14:38.661Z,17.88
2022-11-21T14:17:24.323Z,20.33
2022-11-21T14:19:54.998Z,18.73
2022-11-21T14:22:53.005Z,15.82
2022-11-21T14:25:23.354Z,20.40
2022-11-21T14:27:53.568Z,17.65
2022-11-21T14:30:38.916Z,16.45
2022-11-21T14:33:35.436Z,16.52
2022-11-21T14:36:23.799Z,18.23
2022-11-21T14:41:55.914Z,19.95
2022-11-21T14:44:23.684Z,22.08
2022-11-21T14:46:51.824Z,17.15
2022-11-21T14:49:22.583Z,19.95
2022-11-21T14:52:18.228Z,21.95
2022-11-21T14:55:22.192Z,18.88
2022-11-21T14:57:42.604Z,24.35
2022-11-21T15:00:36.342Z,18.92
2022-11-21T15:03:03.549Z,20.60
2022-11-21T15:06:01.450Z,18.50
2022-11-21T15:09:06.026Z,20.65
2022-11-21T15:11:22.352Z,19.55
2022-11-21T15:16:39.277Z,16.67
2022-11-21T15:19:10.653Z,19.42
2022-11-21T15:21:37.934Z,20.23
2022-11-21T15:24:40.159Z,18.30
2022-11-21T15:27:28.942Z,17.58
2022-11-21T15:30:03.207Z,18.83
2022-11-21T15:32:30.060Z,17.48
2022-11-21T15:34:56.774Z,17.20
2022-11-21T15:37:26.237Z,20.02
2022-11-21T15:39:53.734Z,16.33
2022-11-21T15:42:32.182Z,14.13
2022-11-21T15:45:26.016Z,18.30
2022-11-21T15:47:53.005Z,19.15
2022-11-21T15:50:23.074Z,16.10
2022-11-21T15:52:53.431Z,18.08
2022-11-21T15:55:30.877Z,14.25
2022-11-21T15:57:57.488Z,19.98
2022-11-21T16:00:24.550Z,19.73
2022-11-21T16:02:51.199Z,15.00
2022-11-21T16:05:17.703Z,16.67
2022-11-21T16:07:44.489Z,15.80
2022-11-21T16:10:18.271Z,19.85
2022-11-21T16:12:47.921Z,17.70
2022-11-21T16:15:14.574Z,16.67
2022-11-21T16:17:41.868Z,21.35
2022-11-21T16:20:08.955Z,18.45
2022-11-21T16:22:35.713Z,16.75
2022-11-21T16:25:02.287Z,18.13
2022-11-21T16:27:29.770Z,20.02
2022-11-21T16:29:56.725Z,19.63
2022-11-21T16:32:25.877Z,21.13
2022-11-21T16:34:52.679Z,19.42
2022-11-21T16:37:19.223Z,19.88
2022-11-21T16:39:52.166Z,17.38
2022-11-21T16:42:20.277Z,18.50
2022-11-21T16:44:48.191Z,17.17
2022-11-21T16:47:14.898Z,19.98
2022-11-21T16:49:48.244Z,18.33
2022-11-21T16:52:15.252Z,19.02
2022-11-21T16:54:41.765Z,20.73
2022-11-21T16:57:08.309Z,24.35
2022-11-21T16:59:34.854Z,15.00
2022-11-21T17:02:01.835Z,15.95
2022-11-21T17:04:28.485Z,18.65
2022-11-21T17:06:55.050Z,17.42
2022-11-21T17:09:21.641Z,16.92
2022-11-21T17:11:48.118Z,20.67
2022-11-21T17:14:14.705Z,16.88
2022-11-21T17:16:41.859Z,16.45
2022-11-21T17:19:11.358Z,18.58
2022-11-21T17:21:38.020Z,16.83
2022-11-21T17:24:04.641Z,15.40
2022-11-21T17:26:31.485Z,14.13
2022-11-21T17:29:00.996Z,15.82
2022-11-21T17:31:28.520Z,14.65
2022-11-21T17:34:01.140Z,16.40
2022-11-21T17:36:29.683Z,15.18
2022-11-21T17:38:56.680Z,16.50
2022-11-21T17:41:24.826Z,17.15
2022-11-21T17:43:58.830Z,14.32
2022-11-21T17:46:26.705Z,13.27
2022-11-21T17:48:57.475Z,14.25
2022-11-21T17:51:29.033Z,12.82
2022-11-21T17:54:04.152Z,14.60
2022-11-21T17:56:33.687Z,15.25
2022-11-21T17:59:01.281Z,16.25
2022-11-21T18:01:28.471Z,16.75
2022-11-21T18:04:01.044Z,16.85
2022-11-21T18:06:29.885Z,15.35
2022-11-21T18:09:00.229Z,21.02
2022-11-21T18:11:38.963Z,17.38
2022-11-21T18:14:07.683Z,16.55
2022-11-21T18:16:34.780Z,15.48
2022-11-21T18:19:01.669Z,15.77
2022-11-21T18:21:30.838Z,17.75
2022-11-21T18:23:59.725Z,17.33
2022-11-21T18:26:31.784Z,16.75
2022-11-21T18:29:34.109Z,16.98
2022-11-21T18:31:47.821Z,21.33
2022-11-21T18:34:14.554Z,18.13
2022-11-21T18:36:41.268Z,15.68
2022-11-21T18:39:14.276Z,15.43
2022-11-21T18:41:41.867Z,15.20
2022-11-21T18:44:08.526Z,17.58
2022-11-21T18:46:36.890Z,15.02
2022-11-21T18:49:06.770Z,17.25
2022-11-21T18:51:35.223Z,14.55
2022-11-21T18:54:05.888Z,14.05
2022-11-21T18:56:32.999Z,14.43
2022-11-21T18:58:59.933Z,17.23
2022-11-21T19:01:28.939Z,15.52
2022-11-21T19:03:56.581Z,14.63
2022-11-21T19:06:24.810Z,14.15
2022-11-21T19:08:54.208Z,11.77
2022-11-21T19:11:24.810Z,15.07
2022-11-21T19:13:52.247Z,16.13
2022-11-21T19:16:21.796Z,13.00
2022-11-21T19:19:18.717Z,13.15
2022-11-21T19:21:38.874Z,18.27
2022-11-21T19:24:09.575Z,14.82
2022-11-21T19:26:36.202Z,15.95
2022-11-21T19:29:02.844Z,16.52
2022-11-21T19:31:29.753Z,16.17
2022-11-21T19:33:56.637Z,17.33
2022-11-21T19:36:24.166Z,17.17
2022-11-21T19:38:51.873Z,14.57
2022-11-21T19:41:25.997Z,13.63
2022-11-21T19:43:55.648Z,15.35
2022-11-21T19:46:35.966Z,14.30
2022-11-21T19:49:03.333Z,14.60
2022-11-21T19:51:36.546Z,15.90
2022-11-21T19:54:07.112Z,13.25
2022-11-21T19:56:34.274Z,18.80
2022-11-21T19:59:01.103Z,12.93
2022-11-21T20:01:30.667Z,14.52
2022-11-21T20:04:00.272Z,14.60
2022-11-21T20:06:33.202Z,11.68
2022-11-21T20:09:08.814Z,17.70
2022-11-21T20:11:38.356Z,14.45
2022-11-21T20:14:05.057Z,12.85
2022-11-21T20:16:37.620Z,12.60
2022-11-21T20:19:07.209Z,15.00
2022-11-21T20:21:35.330Z,13.63
2022-11-21T20:24:02.599Z,14.80
2022-11-21T20:26:29.787Z,16.20
2022-11-21T20:28:56.906Z,15.38
2022-11-21T20:31:32.153Z,12.50
2022-11-21T20:34:01.105Z,14.80
2022-11-21T20:36:30.240Z,12.82
2022-11-21T20:38:58.997Z,11.73
2022-11-21T20:41:28.942Z,14.05
2022-11-21T20:46:44.976Z,10.43
2022-11-21T20:49:12.845Z,15.45
2022-11-21T20:54:27.767Z,11.88
2022-11-21T20:56:54.792Z,10.70
2022-11-21T20:59:21.361Z,11.70
2022-11-21T21:01:48.134Z,12.85
2022-11-21T21:04:14.689Z,16.30
2022-11-21T21:06:41.266Z,11.88
2022-11-21T21:09:08.028Z,12.27
2022-11-21T21:11:51.570Z,11.93
2022-11-21T21:14:19.932Z,10.98
2022-11-21T21:16:47.576Z,11.23
2022-11-21T21:19:14.043Z,10.90
2022-11-21T21:21:41.581Z,15.80
2022-11-21T21:24:11.109Z,12.85
2022-11-21T21:26:42.918Z,14.10
2022-11-21T21:29:16.490Z,11.75
2022-11-21T21:31:50.068Z,12.55
2022-11-21T21:34:17.408Z,9.48
2022-11-21T21:36:44.241Z,15.20
2022-11-21T21:39:11.076Z,15.45
2022-11-21T21:41:40.090Z,15.10
2022-11-21T21:44:06.855Z,12.65
2022-11-21T21:46:34.170Z,12.98
2022-11-21T21:49:00.884Z,13.23
2022-11-21T21:51:29.512Z,15.93
2022-11-21T21:53:57.746Z,15.63
2022-11-21T21:56:27.876Z,15.23
2022-11-21T21:58:56.102Z,13.80
2022-11-21T22:01:28.453Z,11.27
2022-11-21T22:03:57.481Z,12.20
2022-11-21T22:06:24.744Z,14.30
2022-11-21T22:08:51.972Z,11.60
2022-11-21T22:11:21.610Z,11.45
2022-11-21T22:13:53.652Z,11.40
2022-11-21T22:16:20.418Z,12.85
2022-11-21T22:18:47.124Z,14.35
2022-11-21T22:21:18.688Z,14.45
2022-11-21T22:24:09.746Z,12.40
2022-11-21T22:26:33.106Z,13.40
2022-11-21T22:28:59.719Z,12.90
2022-11-21T22:31:26.602Z,10.23
2022-11-21T22:33:53.597Z,14.95
2022-11-21T22:36:21.945Z,13.02
2022-11-21T22:38:48.583Z,15.98
2022-11-21T22:41:19.876Z,14.85
2022-11-21T22:43:52.865Z,13.15
2022-11-21T22:46:20.856Z,15.52
2022-11-21T22:48:48.118Z,10.57
2022-11-21T22:51:17.604Z,10.80
2022-11-21T22:53:46.150Z,14.27
2022-11-21T22:58:40.887Z,12.50
2022-11-21T23:01:13.452Z,9.25
2022-11-21T23:03:40.844Z,13.80
2022-11-21T23:06:11.936Z,11.73
2022-11-21T23:08:39.646Z,7.72
2022-11-21T23:11:15.020Z,17.65
2022-11-21T23:13:46.694Z,11.05
2022-11-21T23:16:14.253Z,10.27
2022-11-21T23:18:41.181Z,13.23
2022-11-21T23:21:09.454Z,9.68
2022-11-21T23:23:36.757Z,10.82
2022-11-21T23:26:07.383Z,10.20
2022-11-21T23:28:34.362Z,12.05
2022-11-21T23:31:01.164Z,10.57
2022-11-21T23:33:27.837Z,9.85
2022-11-21T23:35:54.353Z,9.25
2022-11-21T23:38:22.261Z,11.57
2022-11-21T23:40:49.929Z,10.32
2022-11-21T23:43:17.995Z,12.75
2022-11-21T23:45:45.622Z,13.98
2022-11-21T23:48:12.251Z,14.68
2022-11-21T23:50:38.863Z,11.88
2022-11-21T23:53:05.470Z,13.07
2022-11-21T23:55:40.664Z,15.23
2022-11-21T23:58:08.445Z,12.45
